createdAt,value
2023-05-20T00:01:49.127Z,38.22
2023-05-20T00:04:16.195Z,28.38
2023-05-20T00:06:42.868Z,32.28
2023-05-20T00:09:09.908Z,19.67
2023-05-20T00:11:36.899Z,22.00
2023-05-20T00:14:03.598Z,16.67
2023-05-20T00:16:30.365Z,17.27
2023-05-20T00:18:57.395Z,15.07
2023-05-20T00:21:24.150Z,17.23
2023-05-20T00:23:51.165Z,18.77
2023-05-20T00:26:17.841Z,18.35
2023-05-20T00:28:48.378Z,18.67
2023-05-20T00:31:15.044Z,16.20
2023-05-20T00:33:41.820Z,17.98
2023-05-20T00:36:08.809Z,20.20
2023-05-20T00:38:35.619Z,17.52
2023-05-20T00:41:02.266Z,18.42
2023-05-20T00:43:29.000Z,19.48
2023-05-20T00:45:55.733Z,18.47
2023-05-20T00:48:22.872Z,18.83
2023-05-20T00:50:50.445Z,17.77
2023-05-20T00:53:18.641Z,19.42
2023-05-20T00:55:45.706Z,18.30
2023-05-20T00:58:12.967Z,17.83
2023-05-20T01:00:39.676Z,18.48
2023-05-20T01:03:06.476Z,17.80
2023-05-20T01:05:33.845Z,18.10
2023-05-20T01:08:00.828Z,15.98
2023-05-20T01:10:30.150Z,17.27
2023-05-20T01:12:59.809Z,17.00
2023-05-20T01:15:27.786Z,17.05
2023-05-20T01:18:01.527Z,15.68
2023-05-20T01:20:30.255Z,21.00
2023-05-20T01:22:57.617Z,17.90
2023-05-20T01:25:25.258Z,17.77
2023-05-20T01:27:54.218Z,17.63
2023-05-20T01:30:22.076Z,14.38
2023-05-20T01:32:52.472Z,15.88
2023-05-20T01:35:21.624Z,14.80
2023-05-20T01:37:52.241Z,15.15
2023-05-20T01:40:19.996Z,15.55
2023-05-20T01:42:52.929Z,22.13
2023-05-20T01:45:20.046Z,24.17
2023-05-20T01:47:46.918Z,26.53
2023-05-20T01:50:13.591Z,27.40
2023-05-20T01:52:40.324Z,27.35
2023-05-20T01:55:07.294Z,28.02
2023-05-20T01:57:34.017Z,35.13
2023-05-20T02:00:01.973Z,34.47
2023-05-20T02:02:28.868Z,34.20
2023-05-20T02:04:55.831Z,35.58
2023-05-20T02:07:22.479Z,34.88
2023-05-20T02:09:49.102Z,39.78
2023-05-20T02:12:18.644Z,40.17
2023-05-20T02:14:48.330Z,38.55
2023-05-20T02:17:16.951Z,38.67
2023-05-20T02:19:44.963Z,41.20
2023-05-20T02:22:11.931Z,42.78
2023-05-20T02:24:38.820Z,42.57
2023-05-20T02:27:06.375Z,39.72
2023-05-20T02:29:33.986Z,39.63
2023-05-20T02:32:00.721Z,37.95
2023-05-20T02:34:30.335Z,37.38
2023-05-20T02:36:57.451Z,40.17
2023-05-20T02:39:24.544Z,39.85
2023-05-20T02:41:51.142Z,42.08
2023-05-20T02:44:18.138Z,42.42
2023-05-20T02:46:44.895Z,43.60
2023-05-20T02:49:11.652Z,49.33
2023-05-20T02:51:38.399Z,44.28
2023-05-20T02:54:05.403Z,49.67
2023-05-20T02:56:32.343Z,48.45
2023-05-20T02:59:01.516Z,41.47
2023-05-20T03:01:29.137Z,50.17
2023-05-20T03:03:55.883Z,48.75
2023-05-20T03:06:22.590Z,53.13
2023-05-20T03:08:49.469Z,52.28
2023-05-20T03:11:16.264Z,52.72
2023-05-20T03:13:42.954Z,56.97
2023-05-20T03:16:10.389Z,56.30
2023-05-20T03:18:37.559Z,61.20
2023-05-20T03:21:04.959Z,53.47
2023-05-20T03:23:31.681Z,57.78
2023-05-20T03:25:58.406Z,60.77
2023-05-20T03:28:25.066Z,54.53
2023-05-20T03:30:51.799Z,55.33
2023-05-20T03:33:18.931Z,54.42
2023-05-20T03:35:45.640Z,53.92
2023-05-20T03:38:13.954Z,52.57
2023-05-20T03:40:40.805Z,53.75
2023-05-20T03:43:07.633Z,48.08
2023-05-20T03:45:34.654Z,49.40
2023-05-20T03:48:07.116Z,49.88
2023-05-20T03:50:35.402Z,49.30
2023-05-20T03:53:02.282Z,45.80
2023-05-20T03:55:35.450Z,46.90
2023-05-20T03:58:02.715Z,43.72
2023-05-20T04:00:31.492Z,44.00
2023-05-20T04:02:58.826Z,45.10
2023-05-20T04:05:25.644Z,43.05
2023-05-20T04:07:53.956Z,42.85
2023-05-20T04:10:23.767Z,42.25
2023-05-20T04:12:52.401Z,41.50
2023-05-20T04:15:20.476Z,45.07
2023-05-20T04:17:54.770Z,45.58
2023-05-20T04:20:21.747Z,47.67
2023-05-20T04:22:49.837Z,46.85
2023-05-20T04:25:16.871Z,44.70
2023-05-20T04:27:44.064Z,45.37
2023-05-20T04:30:11.827Z,40.55
2023-05-20T04:32:41.630Z,41.22
2023-05-20T04:35:11.861Z,42.00
2023-05-20T04:37:42.311Z,47.08
2023-05-20T04:40:09.772Z,48.63
2023-05-20T04:42:37.772Z,48.95
2023-05-20T04:45:06.167Z,51.85
2023-05-20T04:47:38.630Z,45.50
2023-05-20T04:50:13.569Z,44.95
2023-05-20T04:52:43.083Z,45.00
2023-05-20T04:55:11.766Z,45.08
2023-05-20T04:57:41.579Z,42.88
2023-05-20T05:00:10.462Z,43.55
2023-05-20T05:02:38.197Z,35.80
2023-05-20T05:05:05.771Z,42.47
2023-05-20T05:07:32.587Z,39.10
2023-05-20T05:09:59.320Z,42.53
2023-05-20T05:12:27.987Z,45.10
2023-05-20T05:14:54.613Z,43.42
2023-05-20T05:17:22.619Z,43.03
2023-05-20T05:19:49.517Z,43.50
2023-05-20T05:22:16.468Z,41.50
2023-05-20T05:24:43.124Z,41.30
2023-05-20T05:27:09.860Z,42.17
2023-05-20T05:29:36.667Z,39.67
2023-05-20T05:32:03.803Z,38.38
2023-05-20T05:34:30.542Z,40.67
2023-05-20T05:36:57.420Z,45.55
2023-05-20T05:39:24.377Z,41.67
2023-05-20T05:41:51.082Z,49.90
2023-05-20T05:44:18.760Z,41.95
2023-05-20T05:46:46.368Z,46.20
2023-05-20T05:49:13.117Z,44.08
2023-05-20T05:51:40.088Z,44.80
2023-05-20T05:54:06.947Z,48.13
2023-05-20T05:56:33.602Z,47.58
2023-05-20T05:59:00.251Z,49.42
2023-05-20T06:01:27.428Z,46.20
2023-05-20T06:03:54.321Z,43.28
2023-05-20T06:06:22.321Z,37.77
2023-05-20T06:08:48.946Z,37.92
2023-05-20T06:11:16.352Z,33.60
2023-05-20T06:13:43.229Z,33.60
2023-05-20T06:16:09.973Z,37.05
2023-05-20T06:18:36.733Z,33.63
2023-05-20T06:21:05.031Z,39.03
2023-05-20T06:23:31.861Z,38.05
2023-05-20T06:26:01.513Z,40.53
2023-05-20T06:28:29.742Z,34.75
2023-05-20T06:30:57.615Z,35.20
2023-05-20T06:33:27.387Z,37.22
2023-05-20T06:35:57.274Z,36.60
2023-05-20T06:38:23.934Z,36.88
2023-05-20T06:40:51.233Z,34.22
2023-05-20T06:43:18.335Z,34.33
2023-05-20T06:45:54.178Z,36.72
2023-05-20T06:48:28.737Z,36.30
2023-05-20T06:50:55.550Z,36.92
2023-05-20T06:53:22.511Z,33.22
2023-05-20T06:55:49.248Z,41.57
2023-05-20T06:58:16.598Z,44.03
2023-05-20T07:00:43.430Z,45.22
2023-05-20T07:03:11.751Z,40.30
2023-05-20T07:05:39.228Z,33.70
2023-05-20T07:08:07.331Z,37.77
2023-05-20T07:10:34.620Z,44.15
2023-05-20T07:13:01.998Z,41.72
2023-05-20T07:15:28.675Z,38.45
2023-05-20T07:17:55.751Z,36.90
2023-05-20T07:20:22.624Z,41.60
2023-05-20T07:22:50.795Z,44.55
2023-05-20T07:25:30.807Z,37.30
2023-05-20T07:27:57.816Z,42.55
2023-05-20T07:30:24.641Z,46.75
2023-05-20T07:33:07.424Z,42.67
2023-05-20T07:35:34.452Z,37.42
2023-05-20T07:38:01.232Z,45.28
2023-05-20T07:40:27.903Z,47.28
2023-05-20T07:42:54.609Z,38.22
2023-05-20T07:45:21.388Z,49.73
2023-05-20T07:47:48.758Z,37.45
2023-05-20T07:50:15.557Z,42.88
2023-05-20T07:52:55.249Z,46.97
2023-05-20T07:55:24.454Z,51.70
2023-05-20T07:57:51.302Z,39.33
2023-05-20T08:00:19.423Z,45.47
2023-05-20T08:02:46.337Z,42.65
2023-05-20T08:05:17.601Z,45.33
2023-05-20T08:07:45.845Z,44.15
2023-05-20T08:10:14.444Z,43.40
2023-05-20T08:12:43.562Z,45.45
2023-05-20T08:15:11.679Z,37.25
2023-05-20T08:17:39.613Z,34.10
2023-05-20T08:20:08.834Z,40.30
2023-05-20T08:22:37.532Z,37.20
2023-05-20T08:25:08.039Z,37.38
2023-05-20T08:27:36.275Z,33.75
2023-05-20T08:30:05.613Z,36.05
2023-05-20T08:32:32.398Z,35.33
2023-05-20T08:35:01.702Z,31.57
2023-05-20T08:37:31.535Z,30.25
2023-05-20T08:39:58.127Z,31.98
2023-05-20T08:42:26.764Z,34.20
2023-05-20T08:44:57.328Z,25.52
2023-05-20T08:47:26.417Z,28.57
2023-05-20T08:49:53.050Z,25.15
2023-05-20T08:52:22.319Z,27.15
2023-05-20T08:54:51.607Z,29.67
2023-05-20T08:57:20.364Z,29.02
2023-05-20T08:59:47.376Z,27.80
2023-05-20T09:02:14.949Z,32.33
2023-05-20T09:04:42.028Z,33.22
2023-05-20T09:07:09.085Z,31.35
2023-05-20T09:09:36.235Z,23.92
2023-05-20T09:12:03.680Z,29.83
2023-05-20T09:14:31.406Z,32.42
2023-05-20T09:16:58.134Z,31.83
2023-05-20T09:19:25.166Z,33.05
2023-05-20T09:21:55.203Z,33.03
2023-05-20T09:24:25.928Z,35.23
2023-05-20T09:26:53.143Z,30.23
2023-05-20T09:29:21.641Z,27.25
2023-05-20T09:31:49.525Z,31.65
2023-05-20T09:34:21.141Z,30.35
2023-05-20T09:36:50.823Z,33.97
2023-05-20T09:39:22.693Z,32.83
2023-05-20T09:42:04.014Z,32.15
2023-05-20T09:44:31.672Z,29.02
2023-05-20T09:46:59.190Z,27.83
2023-05-20T09:49:28.758Z,32.70
2023-05-20T09:51:57.273Z,31.60
2023-05-20T09:54:25.658Z,25.02
2023-05-20T09:56:53.523Z,29.20
2023-05-20T09:59:22.057Z,29.50
2023-05-20T10:01:48.751Z,30.73
2023-05-20T10:04:17.333Z,28.08
2023-05-20T10:07:00.598Z,28.23
2023-05-20T10:09:56.493Z,31.80
2023-05-20T10:12:36.151Z,33.88
2023-05-20T10:15:23.032Z,32.47
2023-05-20T10:18:30.158Z,29.42
2023-05-20T10:20:56.816Z,29.17
2023-05-20T10:23:32.633Z,24.58
2023-05-20T10:25:59.297Z,30.65
2023-05-20T10:28:36.068Z,26.13
2023-05-20T10:31:03.859Z,25.55
2023-05-20T10:33:30.624Z,26.38
2023-05-20T10:36:01.075Z,27.35
2023-05-20T10:38:27.767Z,26.02
2023-05-20T10:40:54.331Z,21.57
2023-05-20T10:43:28.690Z,24.30
2023-05-20T10:45:57.634Z,20.90
2023-05-20T10:48:32.304Z,23.45
2023-05-20T10:51:03.953Z,23.88
2023-05-20T10:53:39.177Z,25.53
2023-05-20T10:56:06.675Z,27.00
2023-05-20T10:58:39.468Z,24.60
2023-05-20T11:01:06.566Z,24.90
2023-05-20T11:03:35.776Z,25.50
2023-05-20T11:06:02.714Z,23.43
2023-05-20T11:08:33.136Z,23.05
2023-05-20T11:10:59.823Z,18.63
2023-05-20T11:13:27.151Z,22.02
2023-05-20T11:15:54.231Z,21.52
2023-05-20T11:18:20.969Z,19.00
2023-05-20T11:20:47.767Z,23.38
2023-05-20T11:23:15.328Z,20.40
2023-05-20T11:25:42.011Z,19.80
2023-05-20T11:28:19.672Z,22.10
2023-05-20T11:30:46.420Z,17.77
2023-05-20T11:33:14.372Z,23.38
2023-05-20T11:35:49.406Z,20.38
2023-05-20T11:38:16.929Z,21.05
2023-05-20T11:40:51.154Z,21.35
2023-05-20T11:43:19.417Z,22.43
2023-05-20T11:45:48.354Z,22.02
2023-05-20T11:48:18.034Z,20.00
2023-05-20T11:50:46.365Z,22.15
2023-05-20T11:53:21.007Z,19.73
2023-05-20T11:55:58.231Z,22.93
2023-05-20T11:58:30.472Z,22.17
2023-05-20T12:01:09.014Z,21.20
2023-05-20T12:03:40.605Z,23.65
2023-05-20T12:06:07.699Z,21.13
2023-05-20T12:08:34.317Z,18.53
2023-05-20T12:11:01.224Z,20.85
2023-05-20T12:13:27.922Z,21.50
2023-05-20T12:15:54.609Z,21.13
2023-05-20T12:18:22.509Z,16.35
2023-05-20T12:20:49.151Z,19.77
2023-05-20T12:23:15.799Z,18.58
2023-05-20T12:25:42.734Z,22.30
2023-05-20T12:28:09.364Z,16.63
2023-05-20T12:30:36.373Z,21.67
2023-05-20T12:33:03.476Z,20.70
2023-05-20T12:35:38.601Z,18.42
2023-05-20T12:38:05.434Z,16.65
2023-05-20T12:40:32.188Z,20.30
2023-05-20T12:43:01.019Z,18.52
2023-05-20T12:45:27.912Z,17.93
2023-05-20T12:47:56.001Z,21.65
2023-05-20T12:50:23.789Z,24.17
2023-05-20T12:52:50.529Z,21.15
2023-05-20T12:55:17.224Z,20.65
2023-05-20T12:57:45.410Z,20.43
2023-05-20T13:00:12.986Z,20.42
2023-05-20T13:02:41.182Z,21.88
2023-05-20T13:05:08.323Z,21.65
2023-05-20T13:07:35.121Z,23.38
2023-05-20T13:10:01.896Z,25.27
2023-05-20T13:12:28.561Z,19.95
2023-05-20T13:14:55.346Z,20.73
2023-05-20T13:17:21.982Z,20.27
2023-05-20T13:19:48.854Z,21.48
2023-05-20T13:22:15.511Z,20.87
2023-05-20T13:24:42.120Z,17.38
2023-05-20T13:27:08.779Z,18.80
2023-05-20T13:29:35.457Z,19.88
2023-05-20T13:32:02.287Z,22.27
2023-05-20T13:34:30.322Z,18.80
2023-05-20T13:36:57.137Z,18.25
2023-05-20T13:39:25.055Z,22.02
2023-05-20T13:41:53.564Z,25.75
2023-05-20T13:44:20.625Z,18.13
2023-05-20T13:46:47.528Z,26.43
2023-05-20T13:49:14.403Z,20.92
2023-05-20T13:51:41.194Z,16.98
2023-05-20T13:54:07.904Z,20.83
2023-05-20T13:56:34.832Z,18.25
2023-05-20T13:59:01.567Z,15.97
2023-05-20T14:01:30.299Z,17.35
2023-05-20T14:03:57.165Z,17.77
2023-05-20T14:06:24.792Z,16.40
2023-05-20T14:08:54.455Z,17.23
2023-05-20T14:11:21.792Z,15.77
2023-05-20T14:13:48.628Z,16.15
2023-05-20T14:16:15.556Z,15.20
2023-05-20T14:18:42.469Z,15.93
2023-05-20T14:21:09.103Z,17.95
2023-05-20T14:23:35.885Z,12.50
2023-05-20T14:26:02.542Z,14.45
2023-05-20T14:28:29.241Z,16.75
2023-05-20T14:30:55.857Z,16.15
2023-05-20T14:33:22.553Z,16.92
2023-05-20T14:35:49.168Z,15.33
2023-05-20T14:38:16.684Z,16.08
2023-05-20T14:40:43.243Z,14.07
2023-05-20T14:43:09.935Z,13.68
2023-05-20T14:45:36.641Z,16.23
2023-05-20T14:48:03.410Z,13.90
2023-05-20T14:50:30.082Z,12.38
2023-05-20T14:52:56.718Z,17.90
2023-05-20T14:55:23.457Z,12.50
2023-05-20T14:57:50.166Z,12.43
2023-05-20T15:00:17.011Z,12.97
2023-05-20T15:02:43.749Z,14.07
2023-05-20T15:05:12.038Z,14.23
2023-05-20T15:07:38.940Z,13.48
2023-05-20T15:10:05.940Z,17.13
2023-05-20T15:12:32.688Z,12.70
2023-05-20T15:14:59.354Z,14.00
2023-05-20T15:17:26.524Z,16.75
2023-05-20T15:19:53.310Z,14.77
2023-05-20T15:22:19.863Z,14.13
2023-05-20T15:24:46.486Z,14.87
2023-05-20T15:27:13.157Z,13.75
2023-05-20T15:29:40.940Z,15.60
2023-05-20T15:32:07.750Z,13.98
2023-05-20T15:34:34.415Z,13.18
2023-05-20T15:37:01.032Z,15.20
2023-05-20T15:39:28.450Z,14.05
2023-05-20T15:41:55.171Z,15.98
2023-05-20T15:44:21.770Z,13.98
2023-05-20T15:46:48.472Z,12.52
2023-05-20T15:49:15.275Z,13.77
2023-05-20T15:51:46.645Z,13.43
2023-05-20T15:54:22.235Z,16.50
2023-05-20T15:56:48.858Z,13.80
2023-05-20T15:59:15.539Z,13.85
2023-05-20T16:01:42.356Z,16.57
2023-05-20T16:04:09.068Z,15.70
2023-05-20T16:06:35.941Z,13.05
2023-05-20T16:09:03.658Z,17.73
2023-05-20T16:11:31.936Z,12.90
2023-05-20T16:13:59.041Z,13.40
2023-05-20T16:16:26.266Z,13.85
2023-05-20T16:18:53.520Z,16.65
2023-05-20T16:21:20.524Z,14.93
2023-05-20T16:23:47.298Z,11.85
2023-05-20T16:26:14.401Z,11.47
2023-05-20T16:28:41.056Z,12.20
2023-05-20T16:31:07.750Z,13.30
2023-05-20T16:33:34.550Z,13.02
2023-05-20T16:36:01.323Z,12.32
2023-05-20T16:38:28.015Z,14.83
2023-05-20T16:40:54.604Z,12.90
2023-05-20T16:43:21.315Z,14.07
2023-05-20T16:45:51.062Z,11.27
2023-05-20T16:48:17.783Z,12.93
2023-05-20T16:50:44.425Z,14.30
2023-05-20T16:53:11.061Z,14.25
2023-05-20T16:55:37.723Z,15.02
2023-05-20T16:58:04.404Z,14.13
2023-05-20T17:00:31.182Z,20.58
2023-05-20T17:02:57.941Z,12.03
2023-05-20T17:05:25.518Z,11.82
2023-05-20T17:07:52.234Z,15.05
2023-05-20T17:10:18.913Z,12.88
2023-05-20T17:12:45.601Z,14.05
2023-05-20T17:15:12.228Z,13.67
2023-05-20T17:17:38.959Z,13.45
2023-05-20T17:20:06.453Z,14.60
2023-05-20T17:22:33.202Z,13.00
2023-05-20T17:24:59.793Z,13.50
2023-05-20T17:27:26.549Z,12.73
2023-05-20T17:29:53.196Z,12.15
2023-05-20T17:32:19.808Z,14.50
2023-05-20T17:34:46.462Z,12.90
2023-05-20T17:37:13.084Z,12.88
2023-05-20T17:39:41.956Z,15.03
2023-05-20T17:42:08.825Z,13.07
2023-05-20T17:44:35.492Z,12.73
2023-05-20T17:47:02.146Z,12.90
2023-05-20T17:49:29.251Z,12.05
2023-05-20T17:51:55.884Z,12.90
2023-05-20T17:54:22.541Z,14.07
2023-05-20T17:56:50.929Z,12.07
2023-05-20T17:59:17.540Z,15.40
2023-05-20T18:01:44.783Z,14.07
2023-05-20T18:04:11.584Z,13.07
2023-05-20T18:06:38.251Z,14.45
2023-05-20T18:09:05.810Z,12.80
2023-05-20T18:11:33.455Z,11.65
2023-05-20T18:14:01.547Z,14.07
2023-05-20T18:16:29.849Z,9.57
2023-05-20T18:18:57.569Z,10.55
2023-05-20T18:21:24.950Z,10.80
2023-05-20T18:23:51.864Z,9.35
2023-05-20T18:26:18.569Z,9.95
2023-05-20T18:28:45.548Z,10.30
2023-05-20T18:31:12.153Z,9.95
2023-05-20T18:33:40.839Z,11.77
2023-05-20T18:36:07.780Z,11.88
2023-05-20T18:38:34.433Z,10.13
2023-05-20T18:41:01.484Z,9.47
2023-05-20T18:43:28.145Z,10.40
2023-05-20T18:45:54.922Z,9.27
2023-05-20T18:48:26.743Z,8.43
2023-05-20T18:50:54.826Z,11.07
2023-05-20T18:53:21.654Z,8.80
2023-05-20T18:55:48.640Z,8.63
2023-05-20T18:58:15.478Z,9.07
2023-05-20T19:00:42.163Z,10.02
2023-05-20T19:03:08.969Z,9.82
2023-05-20T19:05:36.235Z,8.60
2023-05-20T19:08:05.892Z,9.95
2023-05-20T19:10:32.838Z,9.80
2023-05-20T19:12:59.733Z,9.57
2023-05-20T19:15:26.669Z,9.65
2023-05-20T19:17:53.354Z,10.13
2023-05-20T19:20:20.288Z,10.15
2023-05-20T19:22:47.220Z,11.38
2023-05-20T19:25:14.052Z,10.35
2023-05-20T19:27:40.751Z,10.52
2023-05-20T19:30:10.514Z,11.97
2023-05-20T19:32:38.103Z,9.55
2023-05-20T19:35:06.085Z,12.30
2023-05-20T19:37:32.993Z,10.75
2023-05-20T19:39:59.641Z,12.35
2023-05-20T19:42:26.333Z,11.77
2023-05-20T19:44:54.256Z,13.00
2023-05-20T19:47:21.410Z,11.07
2023-05-20T19:49:48.366Z,11.80
2023-05-20T19:52:15.159Z,15.38
2023-05-20T19:54:42.975Z,13.60
2023-05-20T19:57:10.001Z,10.80
2023-05-20T19:59:38.042Z,11.10
2023-05-20T20:02:06.079Z,12.15
2023-05-20T20:04:33.145Z,11.40
2023-05-20T20:07:00.073Z,13.77
2023-05-20T20:09:27.433Z,11.75
2023-05-20T20:11:54.376Z,11.68
2023-05-20T20:14:21.658Z,12.85
2023-05-20T20:16:49.222Z,11.10
2023-05-20T20:19:23.051Z,10.80
2023-05-20T20:21:52.966Z,10.60
2023-05-20T20:24:20.038Z,11.32
2023-05-20T20:26:47.537Z,11.95
2023-05-20T20:29:15.033Z,10.32
2023-05-20T20:31:41.950Z,16.20
2023-05-20T20:34:08.818Z,12.95
2023-05-20T20:36:35.620Z,11.25
2023-05-20T20:39:04.693Z,11.30
2023-05-20T20:41:32.202Z,12.38
2023-05-20T20:43:59.669Z,10.87
2023-05-20T20:46:27.650Z,12.00
2023-05-20T20:48:54.446Z,12.60
2023-05-20T20:51:21.197Z,10.68
2023-05-20T20:53:48.742Z,10.27
2023-05-20T20:56:15.799Z,10.83
2023-05-20T20:58:42.398Z,14.82
2023-05-20T21:01:11.373Z,15.10
2023-05-20T21:03:40.161Z,12.52
2023-05-20T21:06:07.803Z,10.55
2023-05-20T21:08:34.706Z,12.57
2023-05-20T21:11:01.502Z,11.40
2023-05-20T21:13:29.745Z,10.70
2023-05-20T21:15:56.907Z,11.35
2023-05-20T21:18:23.977Z,15.18
2023-05-20T21:20:52.739Z,14.03
2023-05-20T21:23:20.915Z,12.05
2023-05-20T21:25:47.973Z,11.07
2023-05-20T21:28:14.992Z,11.25
2023-05-20T21:30:41.783Z,11.88
2023-05-20T21:33:08.529Z,12.50
2023-05-20T21:35:35.446Z,11.85
2023-05-20T21:38:02.222Z,11.32
2023-05-20T21:40:28.843Z,12.73
2023-05-20T21:42:55.593Z,10.88
2023-05-20T21:45:22.212Z,10.10
2023-05-20T21:47:48.949Z,11.88
2023-05-20T21:50:15.683Z,10.07
2023-05-20T21:52:42.432Z,10.88
2023-05-20T21:55:10.575Z,9.85
2023-05-20T21:57:37.455Z,11.87
2023-05-20T22:00:11.233Z,11.23
2023-05-20T22:02:38.105Z,11.85
2023-05-20T22:05:05.206Z,13.40
2023-05-20T22:07:33.046Z,10.90
2023-05-20T22:10:00.785Z,13.27
2023-05-20T22:12:27.720Z,12.18
2023-05-20T22:14:54.626Z,11.93
2023-05-20T22:17:21.767Z,12.43
2023-05-20T22:19:49.873Z,13.00
2023-05-20T22:22:16.607Z,13.90
2023-05-20T22:24:43.251Z,14.77
2023-05-20T22:27:09.905Z,15.05
2023-05-20T22:29:36.908Z,14.13
2023-05-20T22:32:03.835Z,13.35
2023-05-20T22:34:30.446Z,14.30
2023-05-20T22:36:58.192Z,13.98
2023-05-20T22:39:24.850Z,14.93
2023-05-20T22:41:51.456Z,15.30
2023-05-20T22:44:18.099Z,16.80
2023-05-20T22:46:44.819Z,20.13
2023-05-20T22:49:12.847Z,17.38
2023-05-20T22:51:39.589Z,14.85
2023-05-20T22:54:07.067Z,17.00
2023-05-20T22:56:34.216Z,15.10
2023-05-20T22:59:01.410Z,14.63
2023-05-20T23:01:28.179Z,16.73
2023-05-20T23:03:55.136Z,14.48
2023-05-20T23:06:22.600Z,15.07
2023-05-20T23:08:49.603Z,13.75
2023-05-20T23:11:16.564Z,11.63
2023-05-20T23:13:43.344Z,13.25
2023-05-20T23:16:10.284Z,14.23
2023-05-20T23:18:37.077Z,15.25
2023-05-20T23:21:04.145Z,12.85
2023-05-20T23:23:32.202Z,13.70
2023-05-20T23:25:59.765Z,14.75
2023-05-20T23:28:26.533Z,12.32
2023-05-20T23:30:53.179Z,12.75
2023-05-20T23:33:24.629Z,14.93
2023-05-20T23:35:52.247Z,15.57
2023-05-20T23:38:19.054Z,14.35
2023-05-20T23:40:45.714Z,16.65
2023-05-20T23:43:12.409Z,20.98
2023-05-20T23:45:39.001Z,21.27
2023-05-20T23:48:07.053Z,25.63
2023-05-20T23:50:33.792Z,22.65
2023-05-20T23:53:00.430Z,21.33
2023-05-20T23:55:28.478Z,17.70
2023-05-20T23:57:55.383Z,15.85
